Time;durP1;ratioP1;P1;durP2;ratioP2;P2;SDS_P1;SDS_P2;PMS_P1;PMS_P2;Temp;Humidity;BMP_temperature;BMP_pressure;BME280_temperature;BME280_humidity;BME280_pressure;Samples;Min_cycle;Max_cycle;Signal;HPM_P1;HPM_P2
2023/02/25 00:01:24;;;;;;;22.00;9.63;;;;;;;8.10;93.18;98780.48;1480997;87;21551;-78
2023/02/25 00:03:55;;;;;;;20.70;9.80;;;;;;;8.06;93.89;98765.53;1478776;87;21344;-79
2023/02/25 00:06:23;;;;;;;21.40;9.53;;;;;;;8.04;94.99;98774.59;1480266;88;21427;-78
2023/02/25 00:08:50;;;;;;;27.53;13.63;;;;;;;8.06;94.98;98768.16;1484655;88;22365;-79
2023/02/25 00:11:18;;;;;;;28.87;11.67;;;;;;;8.06;95.80;98758.94;1487602;88;21389;-78
2023/02/25 00:13:45;;;;;;;17.50;9.07;;;;;;;8.09;95.90;98758.59;1484354;87;21426;-76
2023/02/25 00:16:13;;;;;;;25.00;12.33;;;;;;;8.13;95.54;98754.61;1479637;87;22246;-78
2023/02/25 00:18:43;;;;;;;21.30;10.70;;;;;;;8.14;96.98;98743.09;1463516;88;21589;-78
2023/02/25 00:21:28;;;;;;;29.03;13.40;;;;;;;8.22;96.09;98735.62;1484238;88;22063;-79
2023/02/25 00:23:38;;;;;;;27.77;10.25;;;;;;;8.28;95.94;98739.38;1480914;88;21512;-78
2023/02/25 00:26:06;;;;;;;28.33;11.27;;;;;;;8.32;96.29;98732.78;1480597;88;21395;-77
2023/02/25 00:28:34;;;;;;;32.80;13.47;;;;;;;8.40;95.88;98723.54;1480518;88;22572;-76
2023/02/25 00:31:05;;;;;;;30.47;12.77;;;;;;;8.47;95.79;98722.33;1472113;88;22270;-77
2023/02/25 00:33:31;;;;;;;30.47;12.20;;;;;;;8.54;95.27;98725.39;1474433;88;21339;-78
2023/02/25 00:35:57;;;;;;;24.70;11.50;;;;;;;8.61;94.93;98719.44;1469885;88;22270;-77
2023/02/25 00:38:24;;;;;;;31.67;14.80;;;;;;;8.65;94.68;98710.16;1475131;87;21545;-78
2023/02/25 00:40:50;;;;;;;23.93;12.37;;;;;;;8.69;94.56;98712.75;1470612;88;21427;-77
2023/02/25 00:43:16;;;;;;;30.67;13.03;;;;;;;8.76;94.17;98703.96;1474886;88;21375;-78
2023/02/25 00:45:42;;;;;;;26.87;13.00;;;;;;;8.80;93.86;98707.05;1471924;88;21472;-77
2023/02/25 00:48:09;;;;;;;24.80;13.17;;;;;;;8.80;93.62;98698.67;1471124;87;21456;-77
2023/02/25 00:50:35;;;;;;;21.43;11.23;;;;;;;8.84;93.44;98695.67;1469793;88;21489;-78
2023/02/25 00:53:01;;;;;;;35.93;13.13;;;;;;;8.85;93.15;98699.44;1472434;88;22314;-78
2023/02/25 00:55:32;;;;;;;27.00;13.63;;;;;;;8.89;92.63;98686.70;1471783;87;22329;-77
2023/02/25 00:57:57;;;;;;;30.93;11.43;;;;;;;8.91;92.17;98674.97;1477120;87;21761;-79
2023/02/25 01:00:24;;;;;;;26.47;12.50;;;;;;;8.95;91.81;98668.35;1471292;87;21331;-78
2023/02/25 01:02:50;;;;;;;30.13;13.87;;;;;;;8.97;91.07;98660.23;1474943;87;21331;-79
2023/02/25 01:05:16;;;;;;;24.70;12.30;;;;;;;9.00;90.92;98655.92;1474032;87;21368;-78
2023/02/25 01:07:42;;;;;;;24.60;13.27;;;;;;;9.00;90.34;98639.58;1478367;88;22366;-80
2023/02/25 01:10:10;;;;;;;23.90;12.50;;;;;;;9.03;89.42;98632.65;1475458;88;21354;-80
2023/02/25 01:12:37;;;;;;;28.60;14.13;;;;;;;9.09;89.29;98624.52;1467690;88;21397;-79
2023/02/25 01:15:04;;;;;;;27.60;12.93;;;;;;;9.11;88.66;98625.12;1475565;87;21603;-80
2023/02/25 01:17:30;;;;;;;35.37;14.73;;;;;;;9.10;88.29;98622.18;1469585;87;21368;-78
2023/02/25 01:19:57;;;;;;;35.53;13.23;;;;;;;9.07;88.11;98611.98;1476687;87;21375;-78
2023/02/25 01:22:24;;;;;;;25.63;12.93;;;;;;;9.03;87.75;98606.27;1468821;87;22543;-78
2023/02/25 01:24:52;;;;;;;26.37;11.20;;;;;;;9.00;87.52;98602.64;1471521;87;21405;-78
2023/02/25 01:27:18;;;;;;;33.57;12.83;;;;;;;8.97;87.25;98597.73;1450291;88;21434;-78
2023/02/25 01:29:44;;;;;;;31.93;13.73;;;;;;;8.94;87.21;98599.41;1481325;87;21469;-78
2023/02/25 01:32:13;;;;;;;30.87;13.67;;;;;;;8.90;87.21;98599.47;1489096;87;22858;-80
2023/02/25 01:34:40;;;;;;;28.13;13.47;;;;;;;8.87;87.25;98591.92;1466901;88;21427;-80
2023/02/25 01:37:08;;;;;;;26.33;12.00;;;;;;;8.85;87.43;98599.19;1483645;88;21345;-79
2023/02/25 01:39:34;;;;;;;22.60;12.43;;;;;;;8.85;87.45;98595.23;1469670;87;21390;-78
2023/02/25 01:42:05;;;;;;;28.33;14.07;;;;;;;8.83;87.41;98581.39;1483276;87;21569;-78
2023/02/25 01:44:36;;;;;;;30.72;12.68;;;;;;;8.84;87.31;98583.56;1490089;87;21577;-78
2023/02/25 01:47:03;;;;;;;27.27;12.07;;;;;;;8.85;87.36;98586.00;1477030;88;21353;-78
2023/02/25 01:49:35;;;;;;;29.60;12.87;;;;;;;8.87;87.15;98571.32;1486634;87;21367;-80
2023/02/25 01:52:07;;;;;;;34.27;14.13;;;;;;;8.87;86.88;98574.77;1482689;87;21374;-79
2023/02/25 01:54:35;;;;;;;43.17;14.27;;;;;;;8.90;86.43;98569.64;1482640;88;21426;-79
2023/02/25 01:57:09;;;;;;;31.60;13.70;;;;;;;8.91;86.35;98565.48;1479063;87;22424;-78
2023/02/25 01:59:37;;;;;;;28.37;12.80;;;;;;;8.91;86.15;98560.20;1478099;87;21611;-80
2023/02/25 02:02:03;;;;;;;19.83;11.23;;;;;;;8.89;86.01;98550.36;1481689;88;21994;-79
2023/02/25 02:04:30;;;;;;;30.40;13.10;;;;;;;8.91;85.85;98545.69;1482785;87;21588;-80
2023/02/25 02:06:58;;;;;;;29.57;12.87;;;;;;;8.88;85.39;98550.02;1480312;87;21345;-78
2023/02/25 02:09:28;;;;;;;27.33;13.43;;;;;;;8.89;85.38;98546.88;1488122;87;21581;-77
2023/02/25 02:12:01;;;;;;;35.03;14.57;;;;;;;8.89;85.34;98545.08;1478548;88;21397;-78
2023/02/25 02:14:33;;;;;;;26.43;13.47;;;;;;;8.86;85.40;98537.53;1479378;87;21345;-79
2023/02/25 02:17:26;;;;;;;26.83;12.57;;;;;;;8.87;85.20;98529.11;1486195;87;21575;-78
2023/02/25 02:20:19;;;;;;;38.90;15.83;;;;;;;8.85;85.40;98530.59;1458688;87;21649;-77
2023/02/25 02:22:58;;;;;;;29.73;13.67;;;;;;;8.85;85.18;98520.05;1479372;87;21403;-78
2023/02/25 02:25:50;;;;;;;25.30;13.90;;;;;;;8.83;85.18;98520.72;1477232;88;21471;-78
2023/02/25 02:28:46;;;;;;;27.13;11.87;;;;;;;8.77;85.25;98521.45;1487040;88;21295;-80
2023/02/25 02:32:02;;;;;;;29.03;12.93;;;;;;;8.79;85.26;98513.69;1478326;87;21457;-79
2023/02/25 02:34:56;;;;;;;26.63;14.93;;;;;;;8.74;85.13;98508.63;1474457;87;21338;-77
2023/02/25 02:37:36;;;;;;;33.50;13.40;;;;;;;8.74;85.14;98509.95;1468928;87;21559;-78
2023/02/25 02:40:13;;;;;;;29.63;12.87;;;;;;;8.73;85.28;98495.14;1472081;88;21441;-79
2023/02/25 02:42:43;;;;;;;35.90;13.43;;;;;;;8.70;85.35;98488.91;1477636;87;21435;-79
2023/02/25 02:45:24;;;;;;;32.37;14.77;;;;;;;8.76;85.29;98484.22;1475864;88;21448;-79
2023/02/25 02:48:01;;;;;;;27.55;13.53;;;;;;;8.75;84.93;98473.37;1476303;87;21442;-78
2023/02/25 02:50:53;;;;;;;30.17;14.77;;;;;;;8.78;84.74;98478.27;1469471;87;21518;-78
2023/02/25 02:53:37;;;;;;;31.20;14.20;;;;;;;8.76;85.03;98466.58;1471116;87;21426;-79
2023/02/25 02:56:07;;;;;;;30.03;13.80;;;;;;;8.78;84.99;98469.04;1469451;87;21456;-78
2023/02/25 02:58:44;;;;;;;28.20;13.13;;;;;;;8.78;84.66;98460.63;1466585;88;21294;-83
2023/02/25 03:01:19;;;;;;;26.63;12.70;;;;;;;8.82;84.59;98457.11;1467980;88;22426;-80
2023/02/25 03:03:50;;;;;;;23.40;12.73;;;;;;;8.82;84.37;98449.19;1483186;88;21448;-81
2023/02/25 03:06:19;;;;;;;;;;;;;;;8.86;84.12;98454.44;1468772;87;21427;-80
2023/02/25 03:09:05;;;;;;;30.43;12.30;;;;;;;8.87;84.02;98458.70;1481346;87;20333;-80
2023/02/25 03:11:32;;;;;;;31.33;14.97;;;;;;;8.87;84.09;98453.93;1471427;87;21478;-79
2023/02/25 03:13:59;;;;;;;27.60;13.37;;;;;;;8.88;83.95;98459.00;1480886;87;21323;-81
2023/02/25 03:16:30;;;;;;;30.93;13.77;;;;;;;8.85;83.92;98456.73;1480302;87;21593;-80
2023/02/25 03:19:17;;;;;;;29.10;14.43;;;;;;;8.85;83.78;98442.23;1473610;87;21477;-81
2023/02/25 03:21:48;;;;;;;27.80;13.10;;;;;;;8.86;83.86;98454.91;1464996;87;21396;-79
2023/02/25 03:24:21;;;;;;;25.83;14.30;;;;;;;8.85;83.74;98455.92;1475320;88;21412;-80
2023/02/25 03:26:51;;;;;;;28.67;13.60;;;;;;;8.84;83.73;98449.84;1461991;88;21427;-81
2023/02/25 03:29:23;;;;;;;23.52;13.03;;;;;;;8.83;83.84;98452.64;1474043;88;21375;-80
2023/02/25 03:31:58;;;;;;;28.00;11.70;;;;;;;8.83;83.77;98450.01;1484491;87;21382;-80
2023/02/25 03:34:36;;;;;;;32.07;13.13;;;;;;;8.83;83.83;98432.86;1478499;87;21522;-80
2023/02/25 03:37:14;;;;;;;27.07;13.53;;;;;;;8.84;83.69;98437.97;1486758;87;21330;-80
2023/02/25 03:39:42;;;;;;;20.90;11.83;;;;;;;8.80;83.53;98433.56;1486474;87;22292;-81
2023/02/25 03:42:12;;;;;;;35.05;13.13;;;;;;;8.78;83.27;98414.97;1490874;88;21966;-80
2023/02/25 03:44:47;;;;;;;24.23;12.35;;;;;;;8.77;83.25;98430.45;1488763;88;21359;-79
2023/02/25 03:47:16;;;;;;;25.60;13.10;;;;;;;8.76;82.84;98416.97;1481055;88;21434;-80
2023/02/25 03:49:58;;;;;;;27.50;13.23;;;;;;;8.75;82.63;98408.23;1475608;88;21323;-80
2023/02/25 03:52:26;;;;;;;23.43;12.90;;;;;;;8.70;82.45;98409.80;1475920;87;21330;-81
2023/02/25 03:54:55;;;;;;;28.53;12.30;;;;;;;8.64;82.43;98406.58;1485173;88;21322;-80
2023/02/25 03:57:25;;;;;;;25.90;10.77;;;;;;;8.63;82.45;98406.24;1478735;87;21345;-80
2023/02/25 03:59:55;;;;;;;22.67;11.50;;;;;;;8.65;82.23;98398.98;1485207;87;21411;-80
2023/02/25 04:02:29;;;;;;;32.00;13.00;;;;;;;8.61;81.97;98401.67;1487336;88;21390;-81
2023/02/25 04:04:56;;;;;;;24.07;12.73;;;;;;;8.57;81.85;98392.82;1487702;88;23458;-78
2023/02/25 04:07:23;;;;;;;31.17;13.33;;;;;;;8.54;82.04;98396.30;1485369;87;21382;-79
2023/02/25 04:09:49;;;;;;;28.53;12.87;;;;;;;8.53;82.16;98395.48;1483862;88;21489;-78
2023/02/25 04:12:15;;;;;;;29.27;12.67;;;;;;;8.50;82.12;98393.73;1483294;88;21375;-77
2023/02/25 04:14:42;;;;;;;41.53;13.67;;;;;;;8.44;82.21;98391.33;1480848;88;21522;-79
2023/02/25 04:17:10;;;;;;;25.53;13.90;;;;;;;8.42;82.17;98386.73;1493399;87;21579;-78
2023/02/25 04:19:36;;;;;;;33.40;13.53;;;;;;;8.40;82.24;98385.27;1484882;87;21475;-78
2023/02/25 04:22:04;;;;;;;28.90;13.07;;;;;;;8.36;82.39;98385.61;1479221;87;21367;-79
2023/02/25 04:24:30;;;;;;;28.20;13.87;;;;;;;8.35;82.40;98398.98;1479050;88;21404;-78
2023/02/25 04:26:58;;;;;;;31.90;12.33;;;;;;;8.29;82.42;98376.00;1483750;88;21529;-79
2023/02/25 04:29:25;;;;;;;34.87;13.57;;;;;;;8.23;82.63;98380.66;1488335;88;21315;-79
2023/02/25 04:31:51;;;;;;;28.03;12.90;;;;;;;8.17;82.93;98385.34;1485454;87;21589;-79
2023/02/25 04:34:18;;;;;;;26.73;11.80;;;;;;;8.16;83.02;98386.35;1483737;87;21242;-79
2023/02/25 04:36:45;;;;;;;27.57;13.87;;;;;;;8.07;83.43;98385.12;1487471;87;22595;-80
2023/02/25 04:39:14;;;;;;;33.57;13.70;;;;;;;8.10;83.35;98388.70;1486668;88;21507;-80
2023/02/25 04:41:41;;;;;;;33.17;12.67;;;;;;;8.07;83.57;98392.21;1486244;88;21440;-79
2023/02/25 04:44:09;;;;;;;22.07;11.67;;;;;;;8.03;83.66;98386.49;1481169;87;22523;-78
2023/02/25 04:46:41;;;;;;;25.57;12.27;;;;;;;8.00;83.98;98392.13;1468998;88;21441;-78
2023/02/25 04:49:09;;;;;;;37.93;13.27;;;;;;;7.99;83.95;98391.78;1484244;87;21485;-79
2023/02/25 04:51:38;;;;;;;32.13;12.23;;;;;;;7.97;84.06;98389.86;1502061;88;22556;-79
2023/02/25 04:54:04;;;;;;;30.83;14.10;;;;;;;7.94;84.14;98384.95;1486360;87;21441;-80
2023/02/25 04:56:31;;;;;;;25.70;12.33;;;;;;;7.90;84.29;98387.10;1486493;88;21514;-79
2023/02/25 04:58:57;;;;;;;32.93;14.43;;;;;;;7.88;84.39;98394.86;1485376;87;21508;-79
2023/02/25 05:01:24;;;;;;;38.80;14.40;;;;;;;7.89;84.30;98396.52;1479175;87;21404;-79
2023/02/25 05:03:55;;;;;;;31.80;13.30;;;;;;;7.88;84.28;98385.17;1481840;87;21403;-79
2023/02/25 05:06:19;;;;;;;30.83;13.20;;;;;;;7.85;84.27;98389.48;1489232;88;21397;-79
2023/02/25 05:08:45;;;;;;;29.60;13.73;;;;;;;7.83;84.39;98405.14;1487093;88;22151;-80
2023/02/25 05:11:11;;;;;;;28.07;13.73;;;;;;;7.83;84.51;98393.29;1477659;87;21315;-78
2023/02/25 05:13:37;;;;;;;28.60;13.43;;;;;;;7.86;84.38;98395.56;1477064;88;21382;-78
2023/02/25 05:16:11;;;;;;;29.33;12.53;;;;;;;7.84;84.45;98409.40;1491309;88;22211;-77
2023/02/25 05:18:39;;;;;;;26.97;13.50;;;;;;;7.88;84.08;98401.45;1487112;88;21486;-78
2023/02/25 05:21:13;;;;;;;33.07;13.43;;;;;;;7.91;83.97;98395.81;1485570;88;21404;-79
2023/02/25 05:23:41;;;;;;;26.80;13.87;;;;;;;7.93;83.86;98393.02;1487028;88;21396;-79
2023/02/25 05:26:09;;;;;;;21.80;12.60;;;;;;;7.94;83.87;98390.22;1486690;88;21419;-79
2023/02/25 05:28:36;;;;;;;27.40;11.63;;;;;;;8.00;83.68;98373.69;1473615;87;21476;-80
2023/02/25 05:31:08;;;;;;;28.30;11.30;;;;;;;8.02;83.45;98382.20;1489756;87;21389;-79
2023/02/25 05:33:36;;;;;;;25.77;11.40;;;;;;;8.04;83.14;98397.34;1476350;87;22248;-84
2023/02/25 05:36:08;;;;;;;34.30;12.50;;;;;;;8.08;83.17;98374.89;1481242;87;21464;-83
2023/02/25 05:38:36;;;;;;;26.33;12.87;;;;;;;8.08;83.38;98378.84;1484667;87;21411;-82
2023/02/25 05:41:09;;;;;;;25.93;10.87;;;;;;;8.09;83.25;98385.77;1485453;87;21463;-85
2023/02/25 05:43:33;;;;;;;28.17;12.20;;;;;;;8.14;83.29;98386.05;1484794;87;21441;-83
2023/02/25 05:46:01;;;;;;;24.07;12.47;;;;;;;8.16;83.27;98394.26;1494450;87;21353;-82
2023/02/25 05:48:32;;;;;;;28.03;11.53;;;;;;;8.17;83.43;98384.02;1480236;88;21331;-83
2023/02/25 05:51:03;;;;;;;29.80;11.75;;;;;;;8.19;83.39;98396.02;1490185;87;21397;-80
2023/02/25 05:53:29;;;;;;;28.45;12.78;;;;;;;8.23;83.42;98396.47;1484369;87;22365;-82
2023/02/25 05:55:55;;;;;;;25.17;11.27;;;;;;;8.26;83.36;98386.41;1484948;88;21353;-83
2023/02/25 05:58:23;;;;;;;34.93;13.43;;;;;;;8.29;83.13;98382.59;1468971;88;21330;-82
2023/02/25 06:00:49;;;;;;;30.17;13.20;;;;;;;8.28;83.11;98383.57;1492329;88;21448;-83
2023/02/25 06:03:17;;;;;;;28.73;12.63;;;;;;;8.30;83.14;98399.52;1480847;87;21467;-84
2023/02/25 06:05:43;;;;;;;24.73;11.93;;;;;;;8.34;83.16;98390.74;1484378;87;21419;-84
2023/02/25 06:08:11;;;;;;;28.53;12.47;;;;;;;8.38;83.07;98394.66;1492186;88;21352;-83
2023/02/25 06:10:40;;;;;;;30.97;13.10;;;;;;;8.39;82.83;98393.69;1481204;87;22447;-83
2023/02/25 06:13:09;;;;;;;37.63;11.83;;;;;;;8.43;82.81;98394.97;1484418;87;22299;-83
2023/02/25 06:15:41;;;;;;;27.10;12.20;;;;;;;8.47;82.78;98396.73;1491726;88;22269;-82
2023/02/25 06:18:08;;;;;;;28.13;11.23;;;;;;;8.47;82.62;98388.32;1485024;87;21440;-82
2023/02/25 06:20:35;;;;;;;23.27;10.53;;;;;;;8.48;82.31;98392.58;1486348;87;22181;-81
2023/02/25 06:23:06;;;;;;;29.23;13.10;;;;;;;8.52;82.42;98396.50;1482012;88;21929;-85
2023/02/25 06:25:32;;;;;;;31.40;12.20;;;;;;;8.51;82.34;98396.16;1484792;88;21332;-84
2023/02/25 06:28:01;;;;;;;21.70;11.47;;;;;;;8.47;82.45;98396.23;1485964;88;21625;-86
2023/02/25 06:30:29;;;;;;;28.93;13.93;;;;;;;8.50;82.59;98405.09;1479198;88;22210;-86
2023/02/25 06:32:56;;;;;;;23.83;11.53;;;;;;;8.48;82.62;98408.40;1481011;88;21478;-85
2023/02/25 06:35:22;;;;;;;32.20;14.03;;;;;;;8.49;82.56;98403.97;1483629;87;21554;-85
2023/02/25 06:37:57;;;;;;;32.70;15.97;;;;;;;8.48;82.61;98413.67;1477777;88;21527;-86
2023/02/25 06:40:23;;;;;;;29.30;14.37;;;;;;;8.46;82.82;98414.85;1486116;87;21404;-85
2023/02/25 06:42:50;;;;;;;24.80;12.70;;;;;;;8.41;83.03;98417.24;1486575;88;21462;-85
2023/02/25 06:45:16;;;;;;;21.77;11.33;;;;;;;8.42;83.03;98418.36;1492485;87;21404;-85
2023/02/25 06:47:42;;;;;;;36.13;13.13;;;;;;;8.40;83.10;98437.52;1470541;88;22262;-83
2023/02/25 06:50:11;;;;;;;50.67;23.23;;;;;;;8.34;83.52;98435.08;1482721;87;21374;-86
2023/02/25 06:52:37;;;;;;;35.20;15.80;;;;;;;8.34;83.74;98436.87;1486210;88;21588;-85
2023/02/25 06:55:05;;;;;;;36.83;18.53;;;;;;;8.28;84.57;98446.82;1483727;87;22269;-85
2023/02/25 06:57:33;;;;;;;51.73;22.17;;;;;;;8.19;85.80;98435.55;1474425;88;21538;-85
2023/02/25 06:59:59;;;;;;;43.47;22.27;;;;;;;8.08;87.73;98439.44;1486628;87;21390;-84
2023/02/25 07:02:26;;;;;;;29.80;14.83;;;;;;;8.00;88.29;98436.06;1489206;88;21574;-84
2023/02/25 07:04:53;;;;;;;26.90;12.07;;;;;;;7.92;89.05;98436.98;1479449;87;21264;-85
2023/02/25 07:07:20;;;;;;;28.37;12.13;;;;;;;7.83;89.77;98441.51;1483509;87;21500;-85
2023/02/25 07:09:46;;;;;;;30.53;12.30;;;;;;;7.80;90.08;98445.00;1484050;88;21397;-84
2023/02/25 07:12:13;;;;;;;29.47;15.67;;;;;;;7.76;90.23;98431.85;1484627;87;21441;-85
2023/02/25 07:14:39;;;;;;;28.80;13.97;;;;;;;7.72;90.99;98434.03;1489258;88;21329;-85
2023/02/25 07:17:06;;;;;;;42.80;15.03;;;;;;;7.66;91.95;98425.03;1487985;88;22288;-85
2023/02/25 07:19:32;;;;;;;33.57;18.63;;;;;;;7.62;92.42;98423.76;1481261;88;21315;-84
2023/02/25 07:21:58;;;;;;;23.23;10.87;;;;;;;7.62;92.34;98421.13;1490524;87;21381;-86
2023/02/25 07:24:25;;;;;;;19.63;12.60;;;;;;;7.62;91.53;98414.55;1469187;88;21308;-85
2023/02/25 07:26:52;;;;;;;20.10;10.07;;;;;;;7.63;91.25;98401.69;1470662;87;21526;-85
2023/02/25 07:29:19;;;;;;;26.57;11.10;;;;;;;7.64;91.01;98395.41;1486860;88;21389;-86
2023/02/25 07:31:45;;;;;;;17.47;10.37;;;;;;;7.65;90.66;98401.02;1460775;88;21442;-85
2023/02/25 07:34:13;;;;;;;25.73;10.73;;;;;;;7.72;90.12;98395.04;1477613;87;21595;-87
2023/02/25 07:36:40;;;;;;;18.17;11.57;;;;;;;7.77;89.61;98380.81;1479437;87;21367;-86
2023/02/25 07:39:09;;;;;;;24.23;11.37;;;;;;;;;;1486158;88;21508;-84
2023/02/25 07:41:36;;;;;;;22.17;10.20;;;;;;;7.84;88.84;98372.53;1484360;88;21337;-84
2023/02/25 07:44:04;;;;;;;19.27;8.67;;;;;;;7.87;88.44;98387.47;1457411;88;21382;-84
2023/02/25 07:46:31;;;;;;;12.40;7.50;;;;;;;7.95;87.01;98398.42;1465513;88;21489;-83
2023/02/25 07:48:58;;;;;;;17.77;8.57;;;;;;;8.02;85.75;98408.55;1481441;88;21317;-83
2023/02/25 07:51:25;;;;;;;17.67;6.67;;;;;;;8.11;85.21;98414.55;1477802;88;22329;-85
2023/02/25 07:53:56;;;;;;;17.63;9.00;;;;;;;8.09;80.90;98415.25;1479586;87;21346;-83
2023/02/25 08:03:27;;;;;;;18.50;9.50;;;;;;;8.14;81.11;98422.94;1480769;87;22203;-82
2023/02/25 08:05:53;;;;;;;15.67;9.03;;;;;;;8.15;80.86;98434.29;1475345;88;21688;-83
2023/02/25 08:08:20;;;;;;;12.90;7.73;;;;;;;8.13;81.26;98447.63;1480553;88;21390;-81
2023/02/25 08:10:47;;;;;;;28.97;14.67;;;;;;;8.11;81.18;98443.53;1479284;87;22374;-83
2023/02/25 08:13:13;;;;;;;22.40;11.70;;;;;;;8.11;82.14;98444.85;1480834;87;22401;-83
2023/02/25 08:15:42;;;;;;;21.03;8.87;;;;;;;8.03;81.45;98431.28;1480153;88;21360;-82
2023/02/25 08:18:08;;;;;;;14.80;8.63;;;;;;;7.98;82.24;98436.27;1478696;88;21455;-80
2023/02/25 08:20:34;;;;;;;13.17;8.07;;;;;;;7.90;82.25;98431.06;1479956;88;21382;-81
2023/02/25 08:23:01;;;;;;;14.63;7.60;;;;;;;7.87;83.32;98425.66;1477731;88;21390;-82
2023/02/25 08:25:27;;;;;;;10.90;7.10;;;;;;;7.84;83.91;98429.97;1478003;88;21309;-81
2023/02/25 08:27:54;;;;;;;23.83;11.63;;;;;;;7.80;83.40;98431.84;1466004;88;21478;-84
2023/02/25 08:30:20;;;;;;;18.83;10.13;;;;;;;7.82;84.23;98441.67;1485983;87;21482;-83
2023/02/25 08:32:47;;;;;;;18.83;9.43;;;;;;;7.78;84.45;98450.94;1477078;88;21618;-81
2023/02/25 08:35:14;;;;;;;19.97;10.90;;;;;;;7.79;84.69;98445.98;1476783;87;21339;-82
2023/02/25 08:37:44;;;;;;;19.27;9.83;;;;;;;7.81;84.71;98442.17;1473777;87;22350;-76
2023/02/25 08:40:12;;;;;;;13.27;7.07;;;;;;;7.84;84.46;98442.32;1395022;88;22228;-82
2023/02/25 08:43:44;;;;;;;12.27;8.07;;;;;;;7.80;83.26;98439.73;1402535;87;21295;-82
2023/02/25 08:46:11;;;;;;;11.60;6.40;;;;;;;7.80;82.99;98441.05;1449333;90;22642;-82
2023/02/25 08:48:37;;;;;;;10.00;6.60;;;;;;;7.74;83.18;98431.20;1437721;90;21700;-83
2023/02/25 08:55:05;;;;;;;15.07;8.97;;;;;;;7.69;83.28;98444.42;1515471;89;21356;-83
2023/02/25 08:57:31;;;;;;;16.57;6.67;;;;;;;7.68;83.05;98455.95;1370985;90;21535;-83
2023/02/25 08:59:58;;;;;;;17.63;8.50;;;;;;;7.68;83.06;98449.38;1359893;90;21289;-80
2023/02/25 09:02:24;;;;;;;13.70;7.67;;;;;;;7.68;82.81;98442.79;1441156;90;21326;-81
2023/02/25 09:04:51;;;;;;;20.27;11.80;;;;;;;7.73;82.39;98450.64;1373468;90;21445;-82
2023/02/25 09:07:17;;;;;;;14.77;8.67;;;;;;;7.81;82.33;98453.21;1354701;92;21266;-82
2023/02/25 09:09:43;;;;;;;21.63;9.00;;;;;;;7.83;81.71;98447.28;1449328;93;21387;-82
2023/02/25 09:12:10;;;;;;;17.27;10.33;;;;;;;7.88;81.75;98447.06;1349131;92;21260;-83
2023/02/25 09:14:36;;;;;;;16.37;9.30;;;;;;;7.94;81.90;98448.17;1371325;92;21446;-82
2023/02/25 09:17:04;;;;;;;18.53;9.67;;;;;;;8.02;81.75;98456.47;1349275;92;21326;-84
2023/02/25 09:19:32;;;;;;;11.37;7.03;;;;;;;8.07;80.90;98456.25;1353255;92;21514;-82
2023/02/25 09:21:59;;;;;;;13.30;5.67;;;;;;;8.11;79.38;98444.85;1404105;90;22503;-82
2023/02/25 09:24:28;;;;;;;14.07;6.47;;;;;;;8.11;78.52;98456.23;1476739;88;21449;-81
2023/02/25 09:26:53;;;;;;;18.90;6.67;;;;;;;8.08;78.04;98457.88;1557649;87;22382;-82
2023/02/25 09:29:19;;;;;;;12.10;7.07;;;;;;;8.09;77.64;98454.27;1398832;87;21243;-84
2023/02/25 09:31:45;;;;;;;7.93;5.10;;;;;;;8.08;77.23;98473.69;1407767;88;21346;-78
2023/02/25 09:34:14;;;;;;;7.83;4.83;;;;;;;8.00;76.81;98468.52;1398755;87;21384;-85
2023/02/25 09:36:40;;;;;;;10.30;5.20;;;;;;;7.96;77.43;98469.86;1396379;87;22006;-83
2023/02/25 09:39:08;;;;;;;7.40;4.00;;;;;;;7.85;77.42;98488.72;1404650;87;21420;-83
2023/02/25 09:42:00;;;;;;;11.23;6.07;;;;;;;7.79;77.70;98502.59;1501062;89;21456;-82
2023/02/25 09:44:46;;;;;;;7.43;5.53;;;;;;;7.72;78.09;98468.77;1553282;87;22116;-81
2023/02/25 09:47:42;;;;;;;17.47;4.63;;;;;;;7.67;78.69;98477.19;1396624;88;21236;-83
2023/02/25 09:50:20;;;;;;;7.80;4.27;;;;;;;7.61;78.52;98490.55;1401263;87;21391;-83
2023/02/25 09:52:50;;;;;;;13.93;7.50;;;;;;;7.56;78.67;98474.45;1558970;87;21265;-84
2023/02/25 09:55:36;;;;;;;10.67;6.10;;;;;;;7.62;79.25;98469.83;1506679;88;21464;-84
2023/02/25 09:58:30;;;;;;;6.97;3.90;;;;;;;7.66;79.08;98468.98;1439940;87;21472;-83
2023/02/25 10:01:16;;;;;;;11.03;5.77;;;;;;;7.72;78.65;98480.61;1472056;87;21637;-83
2023/02/25 10:04:11;;;;;;;10.30;4.97;;;;;;;7.73;78.59;98498.86;1473039;87;21604;-84
2023/02/25 10:06:42;;;;;;;9.43;5.20;;;;;;;7.73;78.00;98492.77;1472531;88;21477;-85
2023/02/25 10:09:21;;;;;;;;;;;;;;;7.71;78.38;98488.17;1472360;88;21788;-84
2023/02/25 10:12:08;;;;;;;11.30;5.17;;;;;;;7.67;77.80;98490.34;1475068;88;20295;-84
2023/02/25 10:15:20;;;;;;;8.60;4.73;;;;;;;7.67;77.98;98472.73;1446192;89;21605;-85
2023/02/25 10:18:16;;;;;;;4.30;3.03;;;;;;;7.77;77.83;98475.61;1448796;90;21376;-83
2023/02/25 10:20:53;;;;;;;6.43;3.77;;;;;;;7.90;77.25;98479.80;1448453;90;22429;-83
2023/02/25 10:23:30;;;;;;;7.40;5.33;;;;;;;8.12;77.27;98496.57;1445075;90;21533;-85
2023/02/25 10:26:23;;;;;;;9.10;4.40;;;;;;;8.19;74.96;98492.71;1439208;90;22464;-84
2023/02/25 10:28:55;;;;;;;10.37;4.70;;;;;;;8.25;74.50;98498.58;1443951;90;21636;-82
2023/02/25 10:31:22;;;;;;;10.83;5.87;;;;;;;8.22;74.11;98477.86;1447586;90;22538;-81
2023/02/25 10:33:52;;;;;;;8.00;4.10;;;;;;;8.22;74.04;98490.53;1445285;90;21569;-82
2023/02/25 10:36:40;;;;;;;6.63;3.53;;;;;;;8.19;74.24;98482.17;1529273;90;22214;-82
2023/02/25 10:39:08;;;;;;;6.30;3.57;;;;;;;8.16;73.77;98493.07;1529183;90;21311;-80
2023/02/25 10:45:33;;;;;;;3.90;2.43;;;;;;;8.08;72.90;98480.28;1529514;90;21245;-79
2023/02/25 10:48:20;;;;;;;5.90;4.00;;;;;;;7.99;71.53;98473.45;1380276;90;21304;-82
2023/02/25 10:51:10;;;;;;;4.23;2.93;;;;;;;7.86;70.84;98475.89;1457890;88;21452;-83
2023/02/25 10:53:35;;;;;;;8.47;3.67;;;;;;;7.84;71.13;98476.56;1406450;88;21332;-80
2023/02/25 10:56:02;;;;;;;9.73;4.37;;;;;;;7.81;71.56;98478.23;1408003;88;21355;-79
2023/02/25 10:58:46;;;;;;;16.07;8.37;;;;;;;7.85;71.87;98488.25;1401250;88;21378;-82
2023/02/25 11:01:17;;;;;;;4.87;3.00;;;;;;;7.84;71.00;98487.91;1406890;89;21459;-82
2023/02/25 11:04:02;;;;;;;8.10;3.70;;;;;;;7.86;70.86;98512.27;1486453;88;21414;-83
2023/02/25 11:06:35;;;;;;;5.63;3.27;;;;;;;7.81;71.32;98487.45;1476158;88;21377;-82
2023/02/25 11:09:07;;;;;;;5.07;3.07;;;;;;;7.72;70.87;98486.70;1477922;88;21377;-82
2023/02/25 11:11:38;;;;;;;8.50;2.80;;;;;;;7.67;71.02;98488.53;1473929;88;21429;-85
2023/02/25 11:14:07;;;;;;;;;;;;;;;7.65;71.02;98479.16;1484431;88;22353;-85
2023/02/25 11:16:37;;;;;;;6.93;3.53;;;;;;;7.67;71.29;98475.87;1474278;88;20824;-85
2023/02/25 11:19:30;;;;;;;4.90;3.50;;;;;;;7.67;70.75;98476.68;1477448;88;21389;-83
2023/02/25 11:21:59;;;;;;;6.57;4.00;;;;;;;7.76;70.87;98476.12;1476415;88;21429;-83
2023/02/25 11:24:33;;;;;;;6.83;2.73;;;;;;;7.85;70.18;98477.71;1478645;88;21548;-85
2023/02/25 11:27:02;;;;;;;7.07;3.60;;;;;;;7.88;69.50;98487.05;1480381;88;21487;-85
2023/02/25 11:29:39;;;;;;;5.47;3.40;;;;;;;7.96;69.14;98449.29;1477379;88;21392;-83
2023/02/25 11:32:19;;;;;;;8.07;3.30;;;;;;;8.05;66.82;98471.92;1482218;88;21377;-81
2023/02/25 11:34:56;;;;;;;4.57;3.30;;;;;;;8.16;66.93;98465.41;1483527;87;21463;-83
2023/02/25 11:37:48;;;;;;;3.63;2.73;;;;;;;8.27;67.42;98462.33;1477393;88;21360;-79
2023/02/25 11:40:34;;;;;;;5.97;3.03;;;;;;;8.34;66.35;98468.02;1485481;87;21596;-82
2023/02/25 11:43:18;;;;;;;3.70;2.10;;;;;;;8.47;65.76;98462.14;1484307;88;22446;-83
2023/02/25 11:45:59;;;;;;;5.13;2.90;;;;;;;8.57;66.47;98477.20;1485941;87;21579;-82
2023/02/25 11:48:31;;;;;;;;;;;;;;;8.66;65.75;98460.78;1480922;88;22366;-82
2023/02/25 11:51:15;;;;;;;5.10;3.03;;;;;;;8.73;64.50;98470.09;1481834;87;20561;-83
2023/02/25 11:53:59;;;;;;;5.43;2.43;;;;;;;8.77;63.39;98481.89;1457406;87;21492;-81
2023/02/25 11:56:35;;;;;;;1.90;1.20;;;;;;;8.77;56.32;98480.06;1479197;87;22573;-82
2023/02/25 11:59:29;;;;;;;2.63;1.47;;;;;;;8.90;58.25;98470.20;1479629;87;21315;-80
2023/02/25 12:02:23;;;;;;;4.80;2.03;;;;;;;8.97;55.79;98464.99;1484658;87;21426;-83
2023/02/25 12:05:12;;;;;;;3.67;2.60;;;;;;;9.04;54.27;98485.19;1487365;88;21404;-81
2023/02/25 12:08:12;;;;;;;7.43;2.50;;;;;;;9.15;55.89;98486.53;1481089;88;22379;-85